Terminal Aerodrome Forecast
Issued by NWS Louisville, KY

Home | Current Version | Previous Version | Text Only | Print | Product List | Glossary On
Versions: 1 2 3 4 5 6 7 8 9 10 11 12 13 14 15
874
FTUS43 KLMK 250520
TAFSDF
TAF
KSDF 250520Z 2506/2612 06004KT P6SM SKC
      TEMPO 2512/2514 5SM HZ
     FM251400 VRB04KT P6SM SCT060
     FM260000 17005KT P6SM SCT100=

USA.gov is the U.S. government's official web portal to all federal, state and local government web resources and services.